Ama, LA

8:09 AM CDT on October 20, 2014 (GMT -0500)
Willowridge Estates | Change Station
CLOSE
Current Station
Personal Weather Station
Location: Luling, LA
Elevation: 14 ft
Nearby Weather Stations

Elev 14 ft 29.89 °N, 90.34 °W | Updated 1 minute ago

Clear
Clear
56.9 °F
Feels Like 56.9 °F
N
0.0
Wind Variable Wind from NE
Gusts 0.0 mph

Today
High -- | Low -- °F
--% Chance of Precip.
Yesterday
High -- | Low -- °F
Precip. -- in
7:06 AM 6:25 PM
Waning Crescent, 11% visible
Pressure 30.06 in
Visibility 10.0 miles
Clouds Few 25000 ft
Dew Point 55 °F
Humidity 94%
Rainfall 0.00 in
Snow Depth Not available.
UV 0 out of 12
Pollen 3.20 out of 12
Ozone Good
PM2.5 Moderate
Flu Activity Sporadic
METAR KMSY 201253Z 05003KT 10SM MIFG FEW250 17/14 A3005 RMK AO2 SLP177 T01670139

More Conditions Fewer Conditions

Pressure 30.06 in
Visibility 10.0 miles
Clouds Few 25000 ft
Dew Point 55 °F
Humidity 94%
Rainfall 0.00 in
Snow Depth Not available.
UV 0 out of 12
Pollen 3.20 out of 12
Ozone Good
PM2.5 Moderate
Flu Activity Sporadic
METAR KMSY 201253Z 05003KT 10SM MIFG FEW250 17/14 A3005 RMK AO2 SLP177 T01670139

More Conditions Fewer Conditions

10-Day Weather Forecast

Almanac

Astronomy

Oct. 20, 2014 Rise Set
Actual Time 7:06 AM CDT 6:25 PM CDT
Civil Twilight 6:42 AM CDT 6:49 PM CDT
Nautical Twilight 6:14 AM CDT 7:17 PM CDT
Astronomical Twilight 5:46 AM CDT 7:44 PM CDT
Moon 4:08 AM CDT 4:36 PM CDT
Length of Visible Light 12h 07m
Length of Day
11h 18m
Waning Crescent, 11% of the Moon is Illuminated
Today
Waning Crescent
Oct 23
New
Oct 30
First Quarter
Nov 6
Full
Nov 14
Last Quarter

Today's Extremes

State Highs State Lows

Community

WunderPhotos

Upload Photos

1,763,363 photos uploaded!

Nearby

Air Quality

  Air Quality AQ Index Pollutant
Yesterday Moderate
PM2.5
Yesterday Good
OZONE
Current Moderate
PM2.5
Current Good
OZONE
Monday Moderate
PM2.5
Monday Good
OZONE
Tuesday Moderate
PM2.5
Tuesday Moderate
OZONE

Snow Depth

Station Depth Elevation
No new snow has been reported.

Earthquake Activity

City Distance Mag. Time & Date
No recent earthquake activity has been reported nearby.
Minimum magnitude displayed is 2.5.

Coastal Water Temperatures

Place Temperature
New Canal, LA 72.0 °F
Shell Beach, LA 69.1 °F
Bayou Gauche, LA 73.9 °F

Nearby Weather Stations